MiSS Linda Lee — WDE5415 — position and weather

sailwx.info

Track history (hours):
 
Tides and Currents Weather Stations Pressure Air Temp Water Temp Dewpoint Dewpoint Depression Visibility Wind Speed Wind Dir Waves Ship Positions

MiSS Linda Lee

Owner: Starfleet Marine Transportation, Inc., Mount Pleasant, SC. More information available from US FCC via Universal Licensing System and Coast Guard Vessel Documentation Center.

Last reported at 2017-Sep-21 19:11 UTC. Time now 2017-Sep-24 00:00 UTC.
Position N 29°48' W 093°20'.

Length 45 m; draft 1.5 m.

Type: Passenger vessel. MMSI: 367366390.

Date/timePositionNaut miles runAvg speedWind from/ knotsBaromVisibWave heightAir tempDewpointWater temp
2017-Sep-21 19:11N 29°48' W 093°20'0 0.0
2017-Sep-21 19:00N 29°48' W 093°20'0 0.0
2017-Sep-21 18:30N 29°48' W 093°20'0 0.0
2017-Sep-21 17:59N 29°48' W 093°20'0 0.0
2017-Sep-21 17:30N 29°48' W 093°20'0 0.0
2017-Sep-21 17:00N 29°48' W 093°20'0 0.0
2017-Sep-21 16:24N 29°48' W 093°20'0 0.0
2017-Sep-21 16:00N 29°48' W 093°20'0 0.0
2017-Sep-21 15:30N 29°48' W 093°20'0 0.0
2017-Sep-21 15:00N 29°48' W 093°20'0 0.0
2017-Sep-21 14:30N 29°48' W 093°20'0 0.0
2017-Sep-21 14:00N 29°48' W 093°20'0 0.0
2017-Sep-21 13:30N 29°48' W 093°20'0 0.0
2017-Sep-21 13:00N 29°48' W 093°20'0 0.0
2017-Sep-21 12:30N 29°48' W 093°20'2 0.0
2017-Sep-20 05:56N 29°49' W 093°21'0 0.0
2017-Sep-20 05:22N 29°49' W 093°21'0 0.0
2017-Sep-20 04:56N 29°49' W 093°21'0 0.0
2017-Sep-20 04:21N 29°49' W 093°21'0 0.0
2017-Sep-20 04:00N 29°49' W 093°21'0 0.0
2017-Sep-20 03:29N 29°49' W 093°21'0 0.0
2017-Sep-18 13:59N 29°49' W 093°21'0 0.0
2017-Sep-18 13:28N 29°49' W 093°21'0 0.0
2017-Sep-18 12:49N 29°49' W 093°21'0 0.0
2017-Sep-18 12:29N 29°49' W 093°21'0 0.0
2017-Sep-18 11:51N 29°49' W 093°21'0 0.0
2017-Sep-18 11:30N 29°49' W 093°21'0 0.0
2017-Sep-18 11:00N 29°49' W 093°21'0 0.0
2017-Sep-18 10:30N 29°49' W 093°21'0 0.0
2017-Sep-18 09:55N 29°49' W 093°21'0 0.0
2017-Sep-18 09:26N 29°49' W 093°21'0 0.0
2017-Sep-18 09:00N 29°49' W 093°21'0 0.0
2017-Sep-18 08:28N 29°49' W 093°21'0 0.0
2017-Sep-18 08:00N 29°49' W 093°21'0 0.7
2017-Sep-18 07:27N 29°48' W 093°21'57 1.9
2017-Sep-17 01:26N 29°38' W 092°16'920.4
2017-Sep-17 01:01N 29°46' W 092°11'3 6.7
2017-Sep-17 00:30N 29°48' W 092°08'3 1.8
2017-Sep-16 22:55N 29°51' W 092°08'3 7.0
2017-Sep-16 22:30N 29°48' W 092°08'4 8.4
2017-Sep-16 22:00N 29°46' W 092°12'5 9.9
2017-Sep-16 21:31N 29°42' W 092°15'714.6
2017-Sep-16 21:00N 29°47' W 092°09'3 5.7
2017-Sep-16 20:30N 29°49' W 092°08'  
Track history (hours):
 
Tides and Currents Weather Stations Pressure Air Temp Water Temp Dewpoint Dewpoint Depression Visibility Wind Speed Wind Dir Waves Ship Positions

MiSS Linda Lee

Owner: Starfleet Marine Transportation, Inc., Mount Pleasant, SC. More information available from US FCC via Universal Licensing System and Coast Guard Vessel Documentation Center.

Last reported at 2017-Sep-21 19:11 UTC. Time now 2017-Sep-24 00:00 UTC.
Position N 29°48' W 093°20'.

Length 45 m; draft 1.5 m.

Type: Passenger vessel. MMSI: 367366390.

Date/timePositionNaut miles runAvg speedWind from/ knotsBaromVisibWave heightAir tempDewpointWater temp
2017-Sep-21 19:11N 29°48' W 093°20'0 0.0
2017-Sep-21 19:00N 29°48' W 093°20'0 0.0
2017-Sep-21 18:30N 29°48' W 093°20'0 0.0
2017-Sep-21 17:59N 29°48' W 093°20'0 0.0
2017-Sep-21 17:30N 29°48' W 093°20'0 0.0
2017-Sep-21 17:00N 29°48' W 093°20'0 0.0
2017-Sep-21 16:24N 29°48' W 093°20'0 0.0
2017-Sep-21 16:00N 29°48' W 093°20'0 0.0
2017-Sep-21 15:30N 29°48' W 093°20'0 0.0
2017-Sep-21 15:00N 29°48' W 093°20'0 0.0
2017-Sep-21 14:30N 29°48' W 093°20'0 0.0
2017-Sep-21 14:00N 29°48' W 093°20'0 0.0
2017-Sep-21 13:30N 29°48' W 093°20'0 0.0
2017-Sep-21 13:00N 29°48' W 093°20'0 0.0
2017-Sep-21 12:30N 29°48' W 093°20'2 0.0
2017-Sep-20 05:56N 29°49' W 093°21'0 0.0
2017-Sep-20 05:22N 29°49' W 093°21'0 0.0
2017-Sep-20 04:56N 29°49' W 093°21'0 0.0
2017-Sep-20 04:21N 29°49' W 093°21'0 0.0
2017-Sep-20 04:00N 29°49' W 093°21'0 0.0
2017-Sep-20 03:29N 29°49' W 093°21'0 0.0
2017-Sep-18 13:59N 29°49' W 093°21'0 0.0
2017-Sep-18 13:28N 29°49' W 093°21'0 0.0
2017-Sep-18 12:49N 29°49' W 093°21'0 0.0
2017-Sep-18 12:29N 29°49' W 093°21'0 0.0
2017-Sep-18 11:51N 29°49' W 093°21'0 0.0
2017-Sep-18 11:30N 29°49' W 093°21'0 0.0
2017-Sep-18 11:00N 29°49' W 093°21'0 0.0
2017-Sep-18 10:30N 29°49' W 093°21'0 0.0
2017-Sep-18 09:55N 29°49' W 093°21'0 0.0
2017-Sep-18 09:26N 29°49' W 093°21'0 0.0
2017-Sep-18 09:00N 29°49' W 093°21'0 0.0
2017-Sep-18 08:28N 29°49' W 093°21'0 0.0
2017-Sep-18 08:00N 29°49' W 093°21'0 0.7
2017-Sep-18 07:27N 29°48' W 093°21'57 1.9
2017-Sep-17 01:26N 29°38' W 092°16'920.4
2017-Sep-17 01:01N 29°46' W 092°11'3 6.7
2017-Sep-17 00:30N 29°48' W 092°08'3 1.8
2017-Sep-16 22:55N 29°51' W 092°08'3 7.0
2017-Sep-16 22:30N 29°48' W 092°08'4 8.4
2017-Sep-16 22:00N 29°46' W 092°12'5 9.9
2017-Sep-16 21:31N 29°42' W 092°15'714.6
2017-Sep-16 21:00N 29°47' W 092°09'3 5.7
2017-Sep-16 20:30N 29°49' W 092°08'  

Dump ship's entire track history